Time;durP1;ratioP1;P1;durP2;ratioP2;P2;SDS_P1;SDS_P2;PMS_P1;PMS_P2;Temp;Humidity;BMP_temperature;BMP_pressure;BME280_temperature;BME280_humidity;BME280_pressure;Samples;Min_cycle;Max_cycle;Signal;HPM_P1;HPM_P2
2023/07/18 00:00:46;;;;;;;6.15;1.90;;;13.20;99.90;;;;;;5018042;28;20090;-67
2023/07/18 00:03:15;;;;;;;6.25;2.38;;;13.20;99.90;;;;;;5040570;28;20080;-67
2023/07/18 00:05:41;;;;;;;6.90;2.45;;;13.20;99.90;;;;;;5042885;28;20017;-68
2023/07/18 00:08:07;;;;;;;6.20;2.10;;;13.20;99.90;;;;;;5037566;28;20389;-67
2023/07/18 00:10:32;;;;;;;5.68;2.35;;;13.20;99.90;;;;;;5041240;28;20429;-67
2023/07/18 00:12:58;;;;;;;3.88;2.05;;;13.10;99.90;;;;;;5012452;28;20033;-66
2023/07/18 00:15:28;;;;;;;6.45;2.53;;;13.10;99.90;;;;;;5029195;28;20146;-67
2023/07/18 00:17:54;;;;;;;4.70;2.70;;;13.10;99.90;;;;;;5030416;28;20100;-67
2023/07/18 00:20:22;;;;;;;3.78;1.90;;;13.10;99.90;;;;;;5032200;28;20508;-67
2023/07/18 00:22:49;;;;;;;3.05;1.95;;;13.00;99.90;;;;;;5032827;28;20033;-66
2023/07/18 00:25:18;;;;;;;4.85;2.20;;;13.00;99.90;;;;;;5036325;28;20017;-67
2023/07/18 00:27:44;;;;;;;6.57;2.50;;;12.90;99.90;;;;;;5035978;28;20016;-66
2023/07/18 00:30:14;;;;;;;4.13;2.13;;;12.90;99.90;;;;;;5035802;28;20037;-66
2023/07/18 00:32:44;;;;;;;4.20;2.22;;;12.90;99.90;;;;;;5040129;28;20052;-67
2023/07/18 00:35:11;;;;;;;9.15;2.65;;;12.90;99.90;;;;;;5024039;28;20037;-66
2023/07/18 00:37:39;;;;;;;4.85;2.53;;;12.90;99.90;;;;;;5028974;28;20033;-66
2023/07/18 00:40:13;;;;;;;5.15;2.65;;;12.90;99.90;;;;;;5042870;28;20029;-67
2023/07/18 00:42:38;;;;;;;;;;;12.90;99.90;;;;;;5027838;28;20036;-67
2023/07/18 00:45:06;;;;;;;5.22;1.88;;;12.80;99.90;;;;;;5029461;28;19913;-68
2023/07/18 00:47:37;;;;;;;4.68;2.25;;;12.80;99.90;;;;;;5048678;28;20048;-67
2023/07/18 00:50:04;;;;;;;4.07;1.90;;;12.80;99.90;;;;;;5029277;28;20394;-66
2023/07/18 00:52:30;;;;;;;7.93;2.10;;;12.80;99.90;;;;;;5046718;28;20029;-67
2023/07/18 00:54:56;;;;;;;4.20;2.20;;;12.70;99.90;;;;;;5026305;28;20041;-67
2023/07/18 00:57:22;;;;;;;4.57;2.00;;;12.70;99.90;;;;;;5037590;28;20033;-67
2023/07/18 00:59:49;;;;;;;3.45;1.83;;;12.70;99.90;;;;;;5045068;28;20049;-66
2023/07/18 01:02:14;;;;;;;2.92;1.83;;;12.70;99.90;;;;;;5051443;28;20021;-65
2023/07/18 01:04:41;;;;;;;5.22;1.77;;;12.70;99.90;;;;;;5030785;28;20088;-65
2023/07/18 01:07:06;;;;;;;4.15;2.38;;;12.60;99.90;;;;;;5048434;28;20036;-67
2023/07/18 01:09:32;;;;;;;3.92;1.92;;;12.60;99.90;;;;;;5050860;28;20021;-66
2023/07/18 01:11:57;;;;;;;4.47;2.53;;;12.50;99.90;;;;;;5050544;28;20025;-66
2023/07/18 01:14:25;;;;;;;4.85;2.25;;;12.40;99.90;;;;;;5029704;28;20108;-66
2023/07/18 01:16:54;;;;;;;5.68;2.38;;;12.40;99.90;;;;;;5046505;28;20036;-67
2023/07/18 01:19:20;;;;;;;4.28;2.42;;;12.40;99.90;;;;;;5040788;28;20107;-66
2023/07/18 01:21:45;;;;;;;7.05;2.50;;;12.40;99.90;;;;;;5037042;28;20025;-66
2023/07/18 01:24:11;;;;;;;4.15;2.35;;;12.30;99.90;;;;;;5045204;28;20033;-65
2023/07/18 01:26:37;;;;;;;7.82;2.53;;;12.30;99.90;;;;;;5033705;28;20025;-65
2023/07/18 01:29:02;;;;;;;5.28;2.13;;;12.20;99.90;;;;;;5040671;28;20021;-66
2023/07/18 01:31:30;;;;;;;4.78;2.28;;;12.20;99.90;;;;;;5021864;28;20661;-66
2023/07/18 01:33:56;;;;;;;6.05;2.42;;;12.20;99.90;;;;;;5034707;28;20018;-66
2023/07/18 01:36:22;;;;;;;3.88;2.30;;;12.10;99.90;;;;;;5046745;28;20051;-66
2023/07/18 01:38:48;;;;;;;5.10;3.03;;;12.10;99.90;;;;;;5039764;28;20605;-66
2023/07/18 01:41:13;;;;;;;3.67;2.13;;;12.10;99.90;;;;;;5044712;28;20044;-64
2023/07/18 01:43:39;;;;;;;5.20;2.53;;;12.10;99.90;;;;;;5035122;28;20390;-68
2023/07/18 01:46:04;;;;;;;6.03;2.90;;;12.10;99.90;;;;;;5018296;28;20076;-65
2023/07/18 01:48:30;;;;;;;4.65;2.17;;;12.10;99.90;;;;;;5039855;28;20029;-66
2023/07/18 01:50:56;;;;;;;5.03;2.67;;;12.00;99.90;;;;;;5049605;28;20021;-66
2023/07/18 01:53:22;;;;;;;6.82;2.53;;;12.00;99.90;;;;;;5044622;28;20040;-65
2023/07/18 01:55:47;;;;;;;7.00;2.15;;;12.00;99.90;;;;;;5035741;28;20028;-66
2023/07/18 01:58:13;;;;;;;5.63;2.90;;;12.00;99.90;;;;;;5034854;28;20027;-65
2023/07/18 02:00:39;;;;;;;8.52;3.08;;;12.00;99.90;;;;;;5044352;28;20500;-66
2023/07/18 02:03:05;;;;;;;5.35;2.65;;;12.00;99.90;;;;;;5045443;28;20587;-66
2023/07/18 02:05:32;;;;;;;4.80;2.60;;;12.00;99.90;;;;;;5035060;28;20383;-66
2023/07/18 02:07:58;;;;;;;8.20;2.40;;;12.00;99.90;;;;;;5027053;28;20018;-65
2023/07/18 02:10:24;;;;;;;5.30;2.30;;;12.00;99.90;;;;;;5026639;28;20021;-66
2023/07/18 02:12:51;;;;;;;4.88;2.42;;;12.00;99.90;;;;;;5044094;28;20025;-66
2023/07/18 02:15:17;;;;;;;7.25;2.78;;;11.90;99.90;;;;;;5038355;28;20021;-65
2023/07/18 02:17:43;;;;;;;5.53;2.80;;;11.90;99.90;;;;;;5044257;28;20029;-65
2023/07/18 02:20:11;;;;;;;9.55;3.47;;;11.90;99.90;;;;;;5038909;28;20032;-64
2023/07/18 02:22:39;;;;;;;8.60;2.33;;;11.90;99.90;;;;;;5028401;28;21329;-65
2023/07/18 02:25:06;;;;;;;5.85;2.47;;;11.90;99.90;;;;;;5040844;28;20032;-65
2023/07/18 02:27:37;;;;;;;14.40;3.22;;;11.90;99.90;;;;;;5040263;28;20489;-67
2023/07/18 02:30:05;;;;;;;6.65;2.90;;;11.90;99.90;;;;;;5044955;28;20108;-64
2023/07/18 02:32:31;;;;;;;3.47;2.20;;;11.90;99.90;;;;;;5049769;28;20060;-66
2023/07/18 02:34:57;;;;;;;4.18;2.30;;;11.90;99.90;;;;;;5036931;28;20067;-65
2023/07/18 02:37:24;;;;;;;5.90;2.67;;;11.90;99.90;;;;;;5036949;28;20056;-66
2023/07/18 02:39:50;;;;;;;6.30;2.33;;;11.80;99.90;;;;;;5045654;28;20036;-65
2023/07/18 02:42:17;;;;;;;6.18;3.05;;;11.90;99.90;;;;;;5042778;28;20116;-65
2023/07/18 02:44:46;;;;;;;5.65;2.67;;;11.90;99.90;;;;;;5021740;28;20022;-65
2023/07/18 02:47:13;;;;;;;5.93;2.50;;;11.90;99.90;;;;;;5017230;28;20051;-66
2023/07/18 02:49:39;;;;;;;3.45;2.17;;;11.80;99.90;;;;;;5044283;28;20021;-65
2023/07/18 02:52:05;;;;;;;3.95;2.13;;;11.80;99.90;;;;;;5034153;28;20099;-65
2023/07/18 02:54:30;;;;;;;7.90;2.58;;;11.80;99.90;;;;;;5048260;28;20032;-66
2023/07/18 02:56:56;;;;;;;4.25;2.80;;;11.70;99.90;;;;;;5041759;28;20025;-66
2023/07/18 02:59:25;;;;;;;9.23;3.50;;;11.70;99.90;;;;;;5041293;28;20446;-66
2023/07/18 03:01:54;;;;;;;4.18;2.60;;;11.60;99.90;;;;;;5044654;28;20017;-66
2023/07/18 03:04:20;;;;;;;3.75;2.13;;;11.60;99.90;;;;;;5025339;28;20568;-65
2023/07/18 03:06:47;;;;;;;8.32;2.75;;;11.60;99.90;;;;;;5046240;28;20438;-66
2023/07/18 03:09:16;;;;;;;5.78;2.92;;;11.60;99.90;;;;;;5037694;28;20021;-66
2023/07/18 03:11:42;;;;;;;6.60;2.75;;;11.50;99.90;;;;;;5049403;28;20489;-66
2023/07/18 03:14:08;;;;;;;3.55;2.30;;;11.50;99.90;;;;;;5023928;28;20037;-66
2023/07/18 03:16:34;;;;;;;9.25;2.70;;;11.50;99.90;;;;;;5038333;28;20021;-68
2023/07/18 03:18:59;;;;;;;8.80;3.28;;;11.50;99.90;;;;;;5045394;28;20020;-66
2023/07/18 03:21:25;;;;;;;4.30;2.28;;;11.60;99.90;;;;;;5040224;28;20134;-66
2023/07/18 03:23:53;;;;;;;7.50;2.60;;;11.50;99.90;;;;;;5032493;28;20036;-66
2023/07/18 03:26:19;;;;;;;7.40;2.58;;;11.60;99.90;;;;;;5044923;28;20490;-66
2023/07/18 03:28:44;;;;;;;4.95;2.50;;;11.50;99.90;;;;;;5042630;28;20025;-66
2023/07/18 03:31:10;;;;;;;5.80;2.78;;;11.50;99.90;;;;;;5046739;28;20094;-66
2023/07/18 03:33:36;;;;;;;5.70;2.38;;;11.50;99.90;;;;;;5044182;28;20375;-66
2023/07/18 03:36:02;;;;;;;6.03;2.75;;;11.50;99.90;;;;;;5034112;28;20033;-65
2023/07/18 03:38:27;;;;;;;4.80;2.53;;;11.40;99.90;;;;;;5031910;28;20053;-66
2023/07/18 03:40:53;;;;;;;3.95;2.30;;;11.50;99.90;;;;;;5036027;28;20087;-66
2023/07/18 03:43:19;;;;;;;3.88;2.47;;;11.40;99.90;;;;;;5040142;28;20498;-66
2023/07/18 03:45:44;;;;;;;4.65;2.38;;;11.30;99.90;;;;;;5038315;28;20502;-66
2023/07/18 03:48:10;;;;;;;11.13;2.78;;;11.30;99.90;;;;;;5030172;28;20118;-65
2023/07/18 03:50:35;;;;;;;6.40;2.63;;;11.30;99.90;;;;;;5041425;28;20765;-67
2023/07/18 03:53:01;;;;;;;4.95;2.30;;;11.30;99.90;;;;;;5044747;28;20025;-66
2023/07/18 03:55:26;;;;;;;5.88;2.58;;;11.30;99.90;;;;;;5036470;28;20038;-68
2023/07/18 03:57:52;;;;;;;5.90;2.50;;;11.30;99.90;;;;;;5039631;28;20022;-67
2023/07/18 04:00:18;;;;;;;3.28;2.05;;;11.40;99.90;;;;;;5040429;28;20108;-66
2023/07/18 04:02:49;;;;;;;5.22;2.83;;;11.40;99.90;;;;;;5038379;28;20056;-66
2023/07/18 04:05:16;;;;;;;6.90;2.88;;;11.50;99.90;;;;;;5041621;28;20078;-65
2023/07/18 04:07:43;;;;;;;8.05;2.38;;;11.50;99.90;;;;;;5037088;28;20017;-66
2023/07/18 04:10:11;;;;;;;3.60;2.15;;;11.50;99.90;;;;;;5032291;28;20394;-66
2023/07/18 04:12:40;;;;;;;5.05;2.30;;;11.50;99.90;;;;;;5029620;28;20021;-65
2023/07/18 04:15:07;;;;;;;3.35;1.88;;;11.60;99.90;;;;;;5049670;28;20044;-66
2023/07/18 04:17:33;;;;;;;5.53;2.67;;;11.60;99.90;;;;;;5037613;28;20104;-66
2023/07/18 04:19:59;;;;;;;3.53;2.20;;;11.70;99.90;;;;;;5036970;28;20132;-66
2023/07/18 04:22:26;;;;;;;5.05;2.38;;;11.70;99.90;;;;;;5019480;28;20108;-65
2023/07/18 04:24:54;;;;;;;6.47;2.33;;;11.80;99.90;;;;;;5036749;28;20092;-66
2023/07/18 04:27:19;;;;;;;4.90;2.42;;;11.90;99.90;;;;;;5039213;28;20041;-66
2023/07/18 04:29:45;;;;;;;4.97;2.10;;;11.90;99.90;;;;;;5042142;28;20048;-65
2023/07/18 04:32:11;;;;;;;7.28;2.47;;;12.00;99.90;;;;;;5038869;28;20022;-67
2023/07/18 04:34:37;;;;;;;3.65;2.03;;;12.10;99.90;;;;;;5031497;28;20035;-66
2023/07/18 04:37:03;;;;;;;5.47;2.08;;;12.20;99.90;;;;;;5024366;28;20103;-66
2023/07/18 04:39:30;;;;;;;7.78;2.25;;;12.40;99.90;;;;;;5044226;28;20013;-66
2023/07/18 04:41:56;;;;;;;3.33;1.65;;;12.90;99.90;;;;;;5049849;28;20021;-65
2023/07/18 04:44:22;;;;;;;3.58;2.15;;;14.00;99.90;;;;;;5047328;28;20037;-66
2023/07/18 04:46:48;;;;;;;3.95;2.00;;;15.50;99.90;;;;;;5023332;28;20072;-66
2023/07/18 04:49:13;;;;;;;4.10;1.95;;;16.80;99.90;;;;;;5028574;28;20037;-67
2023/07/18 04:51:39;;;;;;;3.03;1.75;;;18.20;99.90;;;;;;5042296;28;20036;-66
2023/07/18 04:54:04;;;;;;;2.88;1.52;;;19.20;99.90;;;;;;5050869;28;20017;-66
2023/07/18 04:56:30;;;;;;;3.47;1.75;;;20.00;99.90;;;;;;5048869;28;20474;-66
2023/07/18 04:58:56;;;;;;;4.35;2.15;;;20.70;97.10;;;;;;5044481;28;20045;-67
2023/07/18 05:01:21;;;;;;;3.65;1.50;;;21.00;96.10;;;;;;5036897;28;20036;-67
2023/07/18 05:03:48;;;;;;;3.88;1.75;;;21.50;95.00;;;;;;5036288;28;20041;-66
2023/07/18 05:06:13;;;;;;;4.20;1.83;;;22.00;93.40;;;;;;5043046;28;20052;-66
2023/07/18 05:08:39;;;;;;;3.70;1.70;;;22.10;92.80;;;;;;5037410;28;20510;-66
2023/07/18 05:11:05;;;;;;;2.80;1.70;;;22.40;92.50;;;;;;5046476;28;20025;-68
2023/07/18 05:13:30;;;;;;;5.30;2.78;;;22.80;92.00;;;;;;5042267;28;20032;-64
2023/07/18 05:16:00;;;;;;;4.50;2.00;;;23.20;90.80;;;;;;5040496;28;20036;-67
2023/07/18 05:18:25;;;;;;;1.70;1.17;;;23.50;88.30;;;;;;5040256;28;20067;-67
2023/07/18 05:20:56;;;;;;;2.65;1.77;;;23.50;88.20;;;;;;5037058;28;20438;-67
2023/07/18 05:23:22;;;;;;;3.10;1.65;;;23.80;85.10;;;;;;5026672;28;20036;-66
2023/07/18 05:25:48;;;;;;;3.40;1.80;;;24.30;87.10;;;;;;5041347;28;21480;-67
2023/07/18 05:28:13;;;;;;;3.80;1.70;;;25.00;82.60;;;;;;5041761;28;20121;-64
2023/07/18 05:30:39;;;;;;;2.28;1.45;;;25.20;81.30;;;;;;5036136;28;20100;-66
2023/07/18 05:33:05;;;;;;;2.70;1.80;;;25.70;80.30;;;;;;5035102;28;20040;-67
2023/07/18 05:35:30;;;;;;;3.28;1.45;;;25.80;78.10;;;;;;5039847;28;20029;-67
2023/07/18 05:37:56;;;;;;;3.38;1.83;;;25.40;78.20;;;;;;5042711;28;20033;-67
2023/07/18 05:40:22;;;;;;;4.22;1.80;;;25.70;79.50;;;;;;5040985;28;20070;-67
2023/07/18 05:42:47;;;;;;;3.70;1.88;;;25.30;77.40;;;;;;5041612;28;20104;-67
2023/07/18 05:45:14;;;;;;;4.72;1.60;;;25.60;79.90;;;;;;5026322;28;20178;-67
2023/07/18 05:47:40;;;;;;;3.10;1.60;;;26.60;77.20;;;;;;5030118;28;20083;-67
2023/07/18 05:50:06;;;;;;;3.28;1.77;;;26.70;76.10;;;;;;5041157;28;20700;-67
2023/07/18 05:52:32;;;;;;;4.32;1.95;;;27.00;75.10;;;;;;5037800;28;20055;-66
2023/07/18 05:54:58;;;;;;;2.45;1.30;;;27.30;73.70;;;;;;5051256;28;20028;-67
2023/07/18 05:57:24;;;;;;;5.45;1.90;;;27.70;72.90;;;;;;5045156;28;20389;-68
2023/07/18 05:59:49;;;;;;;5.93;1.65;;;27.30;72.20;;;;;;5046687;28;20032;-67
2023/07/18 06:02:16;;;;;;;3.17;1.83;;;26.90;72.90;;;;;;5039456;28;20109;-66
2023/07/18 06:04:42;;;;;;;3.88;1.58;;;27.10;72.80;;;;;;5044652;28;20036;-67
2023/07/18 06:07:08;;;;;;;3.33;1.60;;;27.10;74.10;;;;;;5020824;28;20030;-67
2023/07/18 06:09:34;;;;;;;3.30;1.85;;;27.10;72.00;;;;;;5024422;28;20021;-67
2023/07/18 06:12:00;;;;;;;4.55;1.73;;;27.30;73.30;;;;;;5039201;28;20386;-66
2023/07/18 06:14:26;;;;;;;7.03;1.77;;;27.70;70.30;;;;;;5044876;28;20037;-67
2023/07/18 06:16:52;;;;;;;3.22;1.35;;;27.40;72.00;;;;;;5043977;28;20024;-68
2023/07/18 06:19:17;;;;;;;4.82;2.03;;;27.70;72.30;;;;;;5039283;28;20031;-68
2023/07/18 06:21:43;;;;;;;2.50;1.50;;;29.80;69.20;;;;;;5038314;28;20048;-67
2023/07/18 06:24:09;;;;;;;3.00;1.85;;;29.10;69.20;;;;;;5049624;28;20070;-68
2023/07/18 06:26:35;;;;;;;2.60;1.60;;;29.20;67.90;;;;;;5045906;28;20013;-67
2023/07/18 06:29:00;;;;;;;6.72;1.67;;;29.10;67.50;;;;;;5035530;28;20025;-67
2023/07/18 06:31:26;;;;;;;3.85;1.70;;;29.80;69.20;;;;;;5037696;28;20104;-67
2023/07/18 06:33:52;;;;;;;2.67;1.38;;;29.50;69.10;;;;;;5043396;28;20034;-68
2023/07/18 06:36:17;;;;;;;6.18;1.58;;;30.10;67.80;;;;;;5033043;28;20029;-67
2023/07/18 06:38:43;;;;;;;2.47;1.80;;;29.20;67.40;;;;;;5028756;28;20082;-67
2023/07/18 06:41:09;;;;;;;2.63;1.50;;;30.40;67.30;;;;;;5033898;28;20478;-66
2023/07/18 06:43:35;;;;;;;8.70;2.25;;;29.40;66.90;;;;;;5039827;28;20031;-68
2023/07/18 06:46:00;;;;;;;5.55;1.80;;;29.50;66.60;;;;;;5035468;28;20036;-67
2023/07/18 06:48:26;;;;;;;4.78;2.08;;;29.50;65.80;;;;;;5020373;28;20113;-67
2023/07/18 06:50:53;;;;;;;2.85;1.40;;;29.10;67.50;;;;;;5038014;28;20021;-68
2023/07/18 06:53:22;;;;;;;4.35;2.03;;;30.10;67.40;;;;;;5037573;28;20036;-67
2023/07/18 06:55:49;;;;;;;4.15;1.65;;;29.40;67.90;;;;;;5033587;28;20021;-68
2023/07/18 06:58:15;;;;;;;5.65;1.98;;;29.50;67.30;;;;;;5044894;28;20032;-66
2023/07/18 07:00:42;;;;;;;2.15;1.65;;;29.50;67.30;;;;;;5042253;28;20091;-67
2023/07/18 07:03:08;;;;;;;4.07;1.63;;;30.70;65.50;;;;;;5045558;28;20071;-68
2023/07/18 07:05:42;;;;;;;6.57;1.77;;;30.00;65.30;;;;;;5047632;28;20103;-67
2023/07/18 07:08:09;;;;;;;3.28;1.80;;;30.00;66.00;;;;;;5049547;28;20032;-67
2023/07/18 07:10:35;;;;;;;3.40;1.67;;;30.30;67.30;;;;;;5046346;28;20048;-67
2023/07/18 07:13:01;;;;;;;2.75;1.50;;;31.20;63.20;;;;;;5037885;28;20395;-68
2023/07/18 07:15:26;;;;;;;4.68;2.00;;;30.90;64.80;;;;;;5040679;28;20025;-67
2023/07/18 07:17:52;;;;;;;4.13;1.85;;;31.40;66.00;;;;;;5039947;28;20113;-67
2023/07/18 07:20:19;;;;;;;3.03;1.67;;;32.80;62.00;;;;;;5045766;28;20033;-67
2023/07/18 07:22:47;;;;;;;3.78;1.77;;;31.90;61.70;;;;;;5031336;28;20025;-67
2023/07/18 07:25:14;;;;;;;2.33;2.13;;;31.20;63.80;;;;;;5044674;28;20033;-68
2023/07/18 07:27:43;;;;;;;2.72;1.67;;;31.50;63.40;;;;;;5032564;28;20112;-67
2023/07/18 07:30:16;;;;;;;3.65;2.13;;;32.10;62.90;;;;;;5045131;28;21961;-66
2023/07/18 07:32:52;;;;;;;4.30;2.35;;;31.10;63.70;;;;;;5039181;28;20025;-68
2023/07/18 07:35:22;;;;;;;2.30;1.58;;;30.70;64.50;;;;;;5040362;28;20080;-67
2023/07/18 07:37:52;;;;;;;5.68;1.90;;;30.30;64.70;;;;;;5048622;28;20545;-68
2023/07/18 07:40:18;;;;;;;2.90;1.58;;;31.80;63.60;;;;;;5034318;28;20513;-66
2023/07/18 07:42:45;;;;;;;3.53;1.95;;;31.80;63.50;;;;;;5037713;28;20143;-67
2023/07/18 07:45:12;;;;;;;2.78;1.75;;;32.40;63.00;;;;;;5035710;28;20025;-68
2023/07/18 07:47:38;;;;;;;4.18;2.33;;;32.90;62.70;;;;;;5025999;28;20052;-67
2023/07/18 07:50:07;;;;;;;4.07;2.25;;;31.90;60.90;;;;;;5033046;28;20033;-68
2023/07/18 07:52:33;;;;;;;3.92;1.75;;;32.10;61.00;;;;;;5034689;28;20482;-67
2023/07/18 07:54:59;;;;;;;3.33;1.70;;;31.80;61.20;;;;;;5033351;28;20033;-67
2023/07/18 07:57:25;;;;;;;3.35;1.63;;;30.80;62.60;;;;;;5042130;28;20436;-68
2023/07/18 07:59:51;;;;;;;11.65;2.25;;;30.60;63.70;;;;;;5041441;28;20490;-69
2023/07/18 08:02:19;;;;;;;3.45;1.80;;;30.60;63.10;;;;;;5038138;28;20033;-66
2023/07/18 08:04:48;;;;;;;6.05;2.25;;;31.00;63.20;;;;;;5042038;28;20476;-67
2023/07/18 08:07:15;;;;;;;5.00;2.30;;;31.80;62.50;;;;;;5049264;28;20021;-67
2023/07/18 08:09:41;;;;;;;6.30;1.90;;;31.80;61.90;;;;;;5040635;28;20036;-67
2023/07/18 08:12:08;;;;;;;4.60;1.88;;;31.90;62.60;;;;;;5032954;28;20022;-67
2023/07/18 08:14:34;;;;;;;3.90;1.92;;;31.90;61.00;;;;;;5018377;28;20032;-67
2023/07/18 08:17:01;;;;;;;3.58;1.80;;;31.90;62.60;;;;;;5034851;28;20155;-67
2023/07/18 08:19:27;;;;;;;3.58;1.70;;;31.20;61.50;;;;;;5041522;28;20414;-67
2023/07/18 08:21:53;;;;;;;8.27;2.08;;;31.10;61.40;;;;;;5037196;28;20022;-67
2023/07/18 08:24:19;;;;;;;4.07;1.85;;;30.50;64.20;;;;;;5038826;28;20494;-66
2023/07/18 08:26:45;;;;;;;9.50;1.60;;;30.50;64.10;;;;;;5040320;28;20037;-67
2023/07/18 08:29:10;;;;;;;4.32;1.70;;;30.00;64.90;;;;;;5039570;28;20040;-66
2023/07/18 08:31:37;;;;;;;3.08;1.60;;;29.70;66.50;;;;;;5040505;28;20041;-67
2023/07/18 08:34:02;;;;;;;4.22;1.80;;;29.30;65.30;;;;;;5033326;28;20033;-67
2023/07/18 08:36:29;;;;;;;3.25;1.67;;;28.60;65.30;;;;;;5020390;28;20033;-68
2023/07/18 08:38:55;;;;;;;3.85;1.85;;;28.60;65.20;;;;;;5032167;28;20031;-68
2023/07/18 08:41:21;;;;;;;4.13;1.77;;;27.80;66.60;;;;;;5038996;28;20273;-68
2023/07/18 08:43:48;;;;;;;2.92;1.52;;;28.30;66.20;;;;;;5038580;28;20541;-68
2023/07/18 08:46:14;;;;;;;2.42;1.75;;;28.30;67.50;;;;;;5037356;28;20037;-67
2023/07/18 08:48:46;;;;;;;3.90;1.55;;;28.10;66.50;;;;;;5044786;28;20507;-67
2023/07/18 08:51:12;;;;;;;3.47;1.80;;;28.40;68.10;;;;;;5037926;28;20528;-67
2023/07/18 08:53:41;;;;;;;3.95;1.80;;;27.80;64.30;;;;;;5031287;28;20108;-68
2023/07/18 08:56:10;;;;;;;4.82;1.88;;;27.60;66.10;;;;;;5028772;28;20452;-68
2023/07/18 08:58:37;;;;;;;2.85;1.55;;;28.30;65.60;;;;;;5027875;28;20124;-68
2023/07/18 09:01:09;;;;;;;3.13;1.60;;;28.70;66.30;;;;;;5035638;28;20022;-67
2023/07/18 09:03:35;;;;;;;3.75;1.50;;;28.50;65.70;;;;;;5021349;28;20032;-68
2023/07/18 09:06:15;;;;;;;2.55;1.50;;;28.60;65.90;;;;;;5036223;28;20029;-67
2023/07/18 09:08:43;;;;;;;9.15;2.00;;;28.30;66.80;;;;;;5036811;28;20036;-68
2023/07/18 09:11:12;;;;;;;3.38;1.80;;;28.10;66.70;;;;;;5041934;28;20021;-66
2023/07/18 09:13:39;;;;;;;5.18;1.90;;;28.00;65.90;;;;;;5042998;28;20048;-67
2023/07/18 09:16:12;;;;;;;3.22;1.77;;;28.20;67.00;;;;;;5019762;28;20036;-67
2023/07/18 09:18:38;;;;;;;3.53;2.05;;;28.20;67.50;;;;;;5037236;28;20458;-68
2023/07/18 09:21:09;;;;;;;2.17;1.70;;;28.00;67.10;;;;;;5054196;28;20056;-68
2023/07/18 09:23:42;;;;;;;4.03;1.73;;;28.40;68.60;;;;;;5040076;28;20029;-67
2023/07/18 09:26:08;;;;;;;;;;;28.10;66.10;;;;;;5040786;28;20056;-68
2023/07/18 09:28:35;;;;;;;6.68;1.83;;;28.20;67.50;;;;;;5041089;28;19914;-69
2023/07/18 09:31:00;;;;;;;2.90;1.48;;;28.90;67.20;;;;;;5045906;28;20028;-68
2023/07/18 09:33:26;;;;;;;3.75;1.80;;;29.20;63.50;;;;;;5038571;28;20033;-67
2023/07/18 09:35:56;;;;;;;5.68;2.05;;;29.10;64.20;;;;;;5038620;28;20037;-68
2023/07/18 09:38:21;;;;;;;5.53;1.85;;;28.90;64.20;;;;;;5043379;28;20029;-68
2023/07/18 09:40:47;;;;;;;4.68;1.70;;;30.10;63.00;;;;;;5047347;28;20428;-67
2023/07/18 09:43:15;;;;;;;4.18;1.55;;;30.80;62.90;;;;;;5044564;28;20386;-67
2023/07/18 09:45:42;;;;;;;6.43;1.95;;;31.50;62.00;;;;;;5030946;28;20021;-67
2023/07/18 09:48:10;;;;;;;5.88;1.80;;;32.10;59.00;;;;;;5033564;28;20056;-68
2023/07/18 09:50:41;;;;;;;2.15;1.52;;;31.80;61.20;;;;;;5035066;28;20048;-68
2023/07/18 09:53:11;;;;;;;3.05;1.67;;;30.90;61.00;;;;;;5038719;28;20060;-67
2023/07/18 09:55:38;;;;;;;3.60;1.88;;;29.70;61.80;;;;;;5020617;28;20479;-69
2023/07/18 09:58:07;;;;;;;2.58;1.67;;;29.50;63.20;;;;;;5012282;28;20054;-68
2023/07/18 10:00:35;;;;;;;3.05;1.67;;;29.30;63.10;;;;;;5042267;28;20170;-67
2023/07/18 10:03:02;;;;;;;10.13;1.85;;;29.60;62.70;;;;;;5036076;28;20087;-67
2023/07/18 10:05:28;;;;;;;7.45;1.63;;;29.90;62.60;;;;;;5032861;28;20029;-66
2023/07/18 10:07:54;;;;;;;4.10;1.50;;;30.10;62.50;;;;;;5032814;28;20052;-65
2023/07/18 10:10:20;;;;;;;2.95;1.60;;;30.20;61.90;;;;;;5038191;28;20059;-67
2023/07/18 10:12:55;;;;;;;5.00;1.60;;;29.60;60.90;;;;;;5033812;28;20061;-68
2023/07/18 10:15:21;;;;;;;1.80;1.50;;;29.50;60.40;;;;;;5042249;28;20482;-69
2023/07/18 10:17:47;;;;;;;7.18;1.65;;;29.00;60.70;;;;;;5050627;28;20087;-68
2023/07/18 10:20:19;;;;;;;2.83;1.45;;;28.50;62.30;;;;;;5032147;28;20037;-68
2023/07/18 10:22:50;;;;;;;6.20;2.00;;;28.50;64.70;;;;;;5038971;28;20155;-69
2023/07/18 10:25:19;;;;;;;6.25;1.70;;;28.50;62.30;;;;;;5019221;28;20116;-67
2023/07/18 10:27:46;;;;;;;5.30;1.70;;;28.30;62.50;;;;;;5016505;28;20031;-68
2023/07/18 10:30:15;;;;;;;4.03;2.03;;;28.50;64.40;;;;;;5046340;28;20029;-67
2023/07/18 10:32:42;;;;;;;4.90;1.80;;;28.40;64.40;;;;;;5035307;28;20538;-69
2023/07/18 10:35:15;;;;;;;3.65;2.22;;;28.10;61.80;;;;;;5036591;28;20401;-67
2023/07/18 10:37:49;;;;;;;4.50;1.40;;;27.70;65.00;;;;;;5032348;28;20032;-67
2023/07/18 10:40:38;;;;;;;3.55;1.83;;;27.40;64.00;;;;;;5038937;28;20025;-68
2023/07/18 10:43:09;;;;;;;6.00;1.88;;;27.30;63.30;;;;;;5035763;28;20402;-68
2023/07/18 10:45:39;;;;;;;6.95;2.00;;;27.10;63.80;;;;;;5051796;28;20153;-68
2023/07/18 10:48:19;;;;;;;7.68;1.58;;;26.90;64.30;;;;;;5041118;28;20141;-68
2023/07/18 10:50:47;;;;;;;3.53;1.67;;;26.80;66.70;;;;;;5043160;28;20021;-68
2023/07/18 10:53:18;;;;;;;2.88;1.60;;;26.50;64.20;;;;;;5026933;28;20104;-67
2023/07/18 10:55:45;;;;;;;2.72;1.80;;;26.20;65.30;;;;;;5043643;28;20033;-67
2023/07/18 10:58:16;;;;;;;7.85;2.30;;;26.00;64.40;;;;;;5016503;28;20046;-66
2023/07/18 11:00:42;;;;;;;3.35;1.60;;;25.90;65.20;;;;;;5041587;28;20029;-67
2023/07/18 11:03:22;;;;;;;7.07;1.88;;;26.50;64.50;;;;;;5041427;28;20033;-67
2023/07/18 11:05:49;;;;;;;4.57;1.98;;;26.80;66.10;;;;;;5023178;28;20062;-67
2023/07/18 11:08:29;;;;;;;3.50;1.65;;;27.20;66.10;;;;;;5020811;28;20036;-67
2023/07/18 11:10:58;;;;;;;3.25;1.88;;;27.70;64.30;;;;;;5018697;28;20601;-69
2023/07/18 11:13:31;;;;;;;3.28;1.80;;;28.00;61.50;;;;;;5023806;28;20037;-67
2023/07/18 11:16:00;;;;;;;3.97;1.85;;;27.90;62.30;;;;;;5033415;28;20029;-69
2023/07/18 11:18:30;;;;;;;6.38;2.08;;;28.10;61.70;;;;;;5035823;28;20052;-68
2023/07/18 11:20:56;;;;;;;6.18;1.83;;;28.30;61.50;;;;;;5022527;28;20025;-68
2023/07/18 11:23:21;;;;;;;3.88;1.80;;;28.20;62.30;;;;;;5029301;28;20052;-67
2023/07/18 11:25:47;;;;;;;3.70;2.13;;;28.20;60.80;;;;;;5035226;28;20028;-67
2023/07/18 11:28:15;;;;;;;5.15;1.98;;;28.10;63.30;;;;;;5035365;28;20506;-66
2023/07/18 11:30:44;;;;;;;4.80;2.08;;;28.20;62.80;;;;;;5040452;28;20187;-67
2023/07/18 11:33:14;;;;;;;7.63;2.00;;;28.30;62.10;;;;;;5018397;28;20044;-68
2023/07/18 11:35:45;;;;;;;2.25;1.42;;;28.20;63.50;;;;;;5030177;28;20048;-69
2023/07/18 11:38:11;;;;;;;5.95;1.73;;;28.20;62.50;;;;;;5038137;28;20090;-67
2023/07/18 11:40:37;;;;;;;8.30;1.75;;;28.50;63.90;;;;;;5024601;28;20402;-70
2023/07/18 11:43:03;;;;;;;3.72;1.90;;;28.10;62.50;;;;;;5030242;28;20030;-67
2023/07/18 11:45:29;;;;;;;3.28;1.73;;;28.00;63.50;;;;;;5025342;28;20082;-69
2023/07/18 11:47:57;;;;;;;5.68;1.83;;;28.00;61.80;;;;;;5029594;28;20018;-68
2023/07/18 11:50:26;;;;;;;3.63;1.83;;;27.90;64.50;;;;;;5029788;28;20083;-67
2023/07/18 11:52:53;;;;;;;6.70;2.00;;;27.90;63.00;;;;;;5024796;28;20025;-66
2023/07/18 11:55:21;;;;;;;3.80;1.52;;;27.70;63.70;;;;;;5032812;28;20037;-68
2023/07/18 11:57:49;;;;;;;6.60;1.98;;;27.20;63.00;;;;;;5029126;28;20032;-69
2023/07/18 12:00:16;;;;;;;2.13;1.65;;;27.50;63.90;;;;;;5041024;28;20044;-66
2023/07/18 12:02:44;;;;;;;4.65;2.05;;;27.80;63.50;;;;;;5018127;28;20052;-67
2023/07/18 12:05:11;;;;;;;8.13;1.67;;;28.20;64.70;;;;;;5012595;28;20040;-67
2023/07/18 12:07:37;;;;;;;3.38;1.60;;;28.30;62.70;;;;;;5045686;28;20139;-67
2023/07/18 12:10:07;;;;;;;2.90;1.50;;;27.90;63.50;;;;;;5038075;28;20029;-67
2023/07/18 12:12:35;;;;;;;4.82;2.60;;;27.90;62.80;;;;;;5037282;28;20079;-66
2023/07/18 12:15:01;;;;;;;3.38;1.98;;;28.00;63.80;;;;;;5021946;28;20033;-68
2023/07/18 12:17:27;;;;;;;7.00;2.70;;;27.70;61.70;;;;;;5025498;28;20083;-67
2023/07/18 12:19:53;;;;;;;3.50;1.90;;;27.50;61.90;;;;;;5038908;28;20040;-67
2023/07/18 12:22:18;;;;;;;2.95;1.40;;;27.20;62.70;;;;;;5034369;28;20021;-67
2023/07/18 12:24:44;;;;;;;7.15;1.98;;;27.00;62.70;;;;;;5042743;28;20028;-67
2023/07/18 12:27:12;;;;;;;3.70;1.95;;;26.60;63.10;;;;;;5044076;28;20020;-68
2023/07/18 12:29:38;;;;;;;3.75;1.88;;;26.60;64.20;;;;;;5045635;28;20025;-68
2023/07/18 12:32:04;;;;;;;6.97;1.85;;;26.70;64.10;;;;;;5039872;28;20486;-69
2023/07/18 12:34:31;;;;;;;4.10;1.80;;;26.10;65.00;;;;;;5037903;28;20041;-67
2023/07/18 12:36:57;;;;;;;5.93;2.15;;;26.40;66.50;;;;;;5041111;28;20033;-67
2023/07/18 12:39:22;;;;;;;4.38;1.77;;;26.50;63.60;;;;;;5027541;28;20385;-69
2023/07/18 12:41:49;;;;;;;4.10;2.13;;;26.60;64.40;;;;;;5032713;28;20041;-68
2023/07/18 12:44:19;;;;;;;3.30;1.88;;;26.50;66.70;;;;;;5048356;28;20036;-68
2023/07/18 12:46:46;;;;;;;5.68;2.20;;;26.40;65.40;;;;;;5043121;28;20022;-67